Time;durP1;ratioP1;P1;durP2;ratioP2;P2;SDS_P1;SDS_P2;PMS_P1;PMS_P2;Temp;Humidity;BMP_temperature;BMP_pressure;BME280_temperature;BME280_humidity;BME280_pressure;Samples;Min_cycle;Max_cycle;Signal;HPM_P1;HPM_P2
2021/12/28 00:02:14;;;;;;;17.02;10.90;;;;;;;3.65;100.00;100816.84;4996890;28;20026;-68
2021/12/28 00:05:00;;;;;;;16.58;10.75;;;;;;;3.66;100.00;100820.34;4997925;28;20121;-68
2021/12/28 00:07:46;;;;;;;17.65;10.93;;;;;;;3.87;100.00;100813.63;4997257;28;20424;-69
2021/12/28 00:10:31;;;;;;;15.85;10.25;;;;;;;3.93;100.00;100810.25;4997932;28;20466;-69
2021/12/28 00:13:18;;;;;;;15.98;10.55;;;;;;;3.92;100.00;100809.41;4982400;28;20125;-69
2021/12/28 00:18:51;;;;;;;17.15;11.10;;;;;;;3.96;100.00;100824.13;4996776;28;20045;-69
2021/12/28 00:21:37;;;;;;;15.50;10.40;;;;;;;4.27;100.00;100820.13;4997574;28;20035;-68
2021/12/28 00:24:23;;;;;;;16.35;11.52;;;;;;;4.55;100.00;100812.56;4996992;28;20109;-68
2021/12/28 00:27:09;;;;;;;17.30;10.75;;;;;;;4.54;100.00;100821.22;4996511;28;20423;-68
2021/12/28 00:29:55;;;;;;;15.85;11.40;;;;;;;4.86;100.00;100816.25;4997377;28;20026;-69
2021/12/28 00:32:41;;;;;;;17.05;10.75;;;;;;;4.34;100.00;100811.56;4997125;28;20359;-69
2021/12/28 00:35:30;;;;;;;13.63;8.82;;;;;;;4.11;100.00;100828.59;4996683;28;20451;-68
2021/12/28 00:38:21;;;;;;;13.25;9.40;;;;;;;4.03;100.00;100825.91;4997324;28;20030;-68
2021/12/28 00:41:07;;;;;;;13.88;9.85;;;;;;;4.45;100.00;100817.69;4981559;28;20033;-67
2021/12/28 00:43:52;;;;;;;16.98;9.82;;;;;;;4.45;100.00;100815.97;4996066;28;20034;-70
2021/12/28 00:46:38;;;;;;;13.15;9.10;;;;;;;4.32;100.00;100819.31;4996547;28;20430;-66
2021/12/28 00:49:24;;;;;;;12.63;9.20;;;;;;;4.62;100.00;100823.88;4997454;28;20037;-69
2021/12/28 00:52:10;;;;;;;12.43;9.02;;;;;;;4.85;100.00;100820.59;4997309;28;20030;-68
2021/12/28 00:54:56;;;;;;;13.45;9.52;;;;;;;4.74;100.00;100819.66;4996009;28;20037;-69
2021/12/28 00:57:42;;;;;;;13.75;9.77;;;;;;;4.61;100.00;100812.63;4995947;28;20100;-69
2021/12/28 01:00:31;;;;;;;16.05;10.85;;;;;;;4.03;100.00;100823.31;4995221;28;20034;-69
2021/12/28 01:03:18;;;;;;;14.93;10.10;;;;;;;3.69;100.00;100826.41;4996351;28;20030;-68
2021/12/28 01:06:06;;;;;;;14.07;9.65;;;;;;;4.17;100.00;100815.69;4982565;28;20098;-69
2021/12/28 01:08:51;;;;;;;15.82;10.35;;;;;;;4.41;100.00;100821.09;4995632;28;20062;-69
2021/12/28 01:11:37;;;;;;;16.10;10.52;;;;;;;4.60;100.00;100810.03;4996400;28;20037;-68
2021/12/28 01:14:23;;;;;;;16.85;11.43;;;;;;;4.32;100.00;100819.31;4982747;28;20031;-69
2021/12/28 01:17:09;;;;;;;18.30;11.75;;;;;;;4.50;100.00;100824.66;4982262;28;20125;-68
2021/12/28 01:19:58;;;;;;;17.65;11.20;;;;;;;4.40;100.00;100809.00;4995932;28;20034;-69
2021/12/28 01:22:45;;;;;;;16.60;11.07;;;;;;;4.02;100.00;100813.81;4996079;28;20045;-68
2021/12/28 01:25:32;;;;;;;16.50;11.05;;;;;;;4.02;100.00;100807.78;4995945;28;20451;-68
2021/12/28 01:28:19;;;;;;;16.95;10.82;;;;;;;4.33;100.00;100802.88;4995984;28;20034;-68
2021/12/28 01:31:05;;;;;;;15.80;10.52;;;;;;;4.62;100.00;100801.41;4995905;28;20030;-68
2021/12/28 01:33:51;;;;;;;17.48;11.02;;;;;;;4.26;100.00;100795.91;4996345;28;20078;-69
2021/12/28 01:36:37;;;;;;;16.27;10.75;;;;;;;4.39;100.00;100805.53;4995869;28;20026;-68
2021/12/28 01:39:22;;;;;;;17.77;11.35;;;;;;;4.08;100.00;100807.81;4996118;28;20026;-69
2021/12/28 01:42:08;;;;;;;17.08;10.98;;;;;;;4.35;100.00;100802.91;4995645;28;20096;-68
2021/12/28 01:44:54;;;;;;;16.05;10.32;;;;;;;4.60;100.00;100797.06;4995670;28;20034;-69
2021/12/28 01:47:40;;;;;;;20.23;12.27;;;;;;;4.36;100.00;100799.44;4996149;28;20050;-68
2021/12/28 01:50:26;;;;;;;18.38;10.65;;;;;;;4.14;100.00;100810.50;4995639;28;20030;-69
2021/12/28 01:53:13;;;;;;;16.90;10.65;;;;;;;3.95;100.00;100817.19;4995230;28;20109;-68
2021/12/28 01:56:06;;;;;;;16.65;10.70;;;;;;;4.28;100.00;100812.34;4995321;28;20040;-69
2021/12/28 01:58:52;;;;;;;17.65;11.23;;;;;;;4.22;100.00;100821.81;4995276;28;20102;-68
2021/12/28 02:01:39;;;;;;;17.10;10.52;;;;;;;4.35;100.00;100802.91;4994724;28;20037;-69
2021/12/28 02:04:28;;;;;;;17.58;11.60;;;;;;;4.17;100.00;100810.50;4996033;28;20041;-69
2021/12/28 02:07:13;;;;;;;18.30;11.57;;;;;;;4.30;100.00;100807.19;4981852;28;20026;-69
2021/12/28 02:09:59;;;;;;;17.50;10.98;;;;;;;4.09;100.00;100813.03;4982193;28;20037;-70
2021/12/28 02:12:45;;;;;;;16.92;10.82;;;;;;;4.14;100.00;100813.94;4995564;28;20459;-70
2021/12/28 02:18:08;;;;;;;18.48;11.68;;;;;;;3.79;100.00;100807.53;5491548;23;20065;-69
2021/12/28 02:20:56;;;;;;;15.77;10.68;;;;;;;3.91;100.00;100812.81;4994145;28;20038;-68
2021/12/28 02:29:59;;;;;;;17.48;11.07;;;;;;;4.21;100.00;100799.31;5580745;23;20054;-68
2021/12/28 02:32:47;;;;;;;18.95;11.50;;;;;;;4.06;100.00;100805.22;4995187;28;20058;-69
2021/12/28 02:35:33;;;;;;;16.75;10.88;;;;;;;4.48;100.00;100792.66;4995029;28;20030;-66
2021/12/28 02:38:19;;;;;;;19.60;12.40;;;;;;;4.58;100.00;100784.06;4994693;28;20045;-67
2021/12/28 02:50:15;;;;;;;17.80;11.98;;;;;;;4.39;100.00;100776.13;5248788;23;20058;-70
2021/12/28 02:53:01;;;;;;;19.48;12.23;;;;;;;4.57;100.00;100776.25;4995140;28;20027;-71
2021/12/28 02:55:49;;;;;;;21.15;12.75;;;;;;;4.22;100.00;100767.34;4994307;28;20447;-70
2021/12/28 02:58:40;;;;;;;22.65;13.45;;;;;;;4.45;100.00;100765.78;4994542;28;20041;-70
2021/12/28 03:01:29;;;;;;;19.55;11.85;;;;;;;4.23;100.00;100764.75;4980605;28;20050;-71
2021/12/28 03:07:36;;;;;;;18.38;11.77;;;;;;;4.53;100.00;100772.78;5669737;23;20046;-71
2021/12/28 03:10:22;;;;;;;20.75;12.40;;;;;;;4.59;100.00;100770.22;4995136;28;20029;-71
2021/12/28 03:13:13;;;;;;;19.15;11.95;;;;;;;4.69;100.00;100766.84;4997999;28;20018;-71
2021/12/28 03:15:59;;;;;;;18.65;12.15;;;;;;;4.87;100.00;100768.72;4998071;28;20463;-72
2021/12/28 03:18:46;;;;;;;19.60;12.68;;;;;;;4.23;100.00;100769.94;4997889;28;20030;-72
2021/12/28 03:21:35;;;;;;;19.48;12.10;;;;;;;4.67;100.00;100771.16;4997717;28;20026;-71
2021/12/28 03:24:21;;;;;;;19.02;11.70;;;;;;;4.19;100.00;100769.91;4996615;28;20455;-72
2021/12/28 03:27:07;;;;;;;20.80;12.35;;;;;;;3.86;100.00;100775.63;4997904;28;20034;-71
2021/12/28 03:29:53;;;;;;;18.88;11.95;;;;;;;4.34;100.00;100776.09;4997329;28;20042;-71
2021/12/28 03:32:39;;;;;;;20.60;12.75;;;;;;;4.44;100.00;100775.31;4997944;28;20132;-71
2021/12/28 03:35:26;;;;;;;18.95;12.23;;;;;;;4.40;100.00;100777.88;4996344;28;20161;-72
2021/12/28 03:38:11;;;;;;;20.55;13.18;;;;;;;4.70;100.00;100786.75;4997413;28;20363;-71
2021/12/28 03:40:58;;;;;;;21.55;12.88;;;;;;;4.33;100.00;100779.53;4995978;28;20027;-71
2021/12/28 03:43:45;;;;;;;21.17;12.45;;;;;;;4.29;100.00;100795.94;4997286;28;20034;-71
2021/12/28 03:46:31;;;;;;;23.35;13.68;;;;;;;4.21;100.00;100794.13;4997781;28;20057;-71
2021/12/28 03:53:05;;;;;;;23.25;13.55;;;;;;;4.59;100.00;100793.56;5406472;23;20018;-72
2021/12/28 04:01:03;;;;;;;24.27;14.35;;;;;;;4.15;100.00;100804.44;5520189;23;20056;-68
2021/12/28 04:03:49;;;;;;;23.48;13.50;;;;;;;4.24;100.00;100808.00;4983262;28;20026;-69
2021/12/28 04:06:35;;;;;;;25.83;14.88;;;;;;;4.11;100.00;100803.53;4997325;28;20022;-68
2021/12/28 04:09:45;;;;;;;24.00;14.48;;;;;;;3.52;100.00;100809.81;4997056;28;20097;-68
2021/12/28 04:12:28;;;;;;;25.45;14.45;;;;;;;4.26;100.00;100818.38;4996940;28;20058;-69
2021/12/28 04:15:14;;;;;;;26.20;15.27;;;;;;;4.02;100.00;100813.81;4997210;28;20034;-69
2021/12/28 04:18:00;;;;;;;24.80;15.23;;;;;;;4.38;100.00;100813.31;4982710;28;20117;-69
2021/12/28 04:21:38;;;;;;;25.73;15.18;;;;;;;4.28;100.00;100799.41;4996808;28;20065;-69
2021/12/28 04:24:24;;;;;;;24.65;15.02;;;;;;;4.70;100.00;100802.31;4983063;28;20026;-69
2021/12/28 04:27:10;;;;;;;23.65;14.10;;;;;;;4.79;100.00;100806.72;4995997;28;20045;-70
2021/12/28 04:29:56;;;;;;;24.00;13.75;;;;;;;4.22;100.00;100814.88;4996497;28;20031;-69
2021/12/28 04:32:42;;;;;;;23.73;14.05;;;;;;;4.22;100.00;100816.63;4996093;28;20359;-69
2021/12/28 04:35:28;;;;;;;24.85;14.65;;;;;;;4.56;100.00;100816.94;4996269;28;20113;-68
2021/12/28 04:38:14;;;;;;;24.27;14.38;;;;;;;4.58;100.00;100811.72;4996253;28;20041;-69
2021/12/28 04:40:59;;;;;;;24.23;14.48;;;;;;;4.84;100.00;100810.22;4996181;28;20030;-69
2021/12/28 04:43:47;;;;;;;22.38;13.80;;;;;;;4.70;100.00;100815.28;4995530;28;20367;-68
2021/12/28 04:46:33;;;;;;;22.25;14.07;;;;;;;4.52;100.00;100825.53;4982685;28;20121;-68
2021/12/28 04:49:21;;;;;;;21.85;13.55;;;;;;;4.57;100.00;100820.38;4981924;28;20026;-68
2021/12/28 04:52:07;;;;;;;22.75;14.00;;;;;;;4.44;100.00;100813.34;4982820;28;20026;-68
2021/12/28 04:54:53;;;;;;;22.88;13.65;;;;;;;4.72;100.00;100817.91;4994726;28;20057;-69
2021/12/28 04:57:40;;;;;;;23.35;14.55;;;;;;;4.75;100.00;100825.72;4995053;28;20394;-71
2021/12/28 05:00:26;;;;;;;22.92;14.43;;;;;;;4.76;100.00;100812.75;4994449;28;20050;-69
2021/12/28 05:03:13;;;;;;;25.48;14.77;;;;;;;4.50;100.00;100823.75;4995959;28;20362;-69
2021/12/28 05:05:59;;;;;;;25.15;14.50;;;;;;;4.84;100.00;100826.66;4982102;28;20041;-69
2021/12/28 05:08:45;;;;;;;25.83;15.05;;;;;;;4.99;100.00;100821.56;4981768;28;20026;-68
2021/12/28 05:11:32;;;;;;;26.85;15.20;;;;;;;4.74;100.00;100809.28;4996135;28;20019;-69
2021/12/28 05:14:18;;;;;;;25.10;14.77;;;;;;;5.12;100.00;100810.41;4995562;28;20427;-69
2021/12/28 05:17:04;;;;;;;26.55;15.43;;;;;;;5.09;100.00;100822.47;4996134;28;20027;-69
2021/12/28 05:19:50;;;;;;;28.05;15.98;;;;;;;4.47;100.00;100810.78;4981762;28;20026;-70
2021/12/28 05:22:36;;;;;;;28.10;16.23;;;;;;;4.84;100.00;100816.28;4995942;28;20034;-70
2021/12/28 05:25:22;;;;;;;28.73;16.30;;;;;;;5.14;100.00;100824.25;4995355;28;20027;-70
2021/12/28 05:28:08;;;;;;;25.55;15.18;;;;;;;4.92;100.00;100824.13;4996447;28;20025;-68
2021/12/28 05:30:54;;;;;;;28.83;16.70;;;;;;;4.96;100.00;100816.38;4992934;28;20026;-69
2021/12/28 05:33:40;;;;;;;27.75;16.15;;;;;;;4.68;100.00;100822.22;4994732;28;20062;-68
2021/12/28 05:36:26;;;;;;;28.20;16.55;;;;;;;4.95;100.00;100819.78;4995069;28;20030;-69
2021/12/28 05:39:12;;;;;;;29.27;16.75;;;;;;;4.99;100.00;100815.50;4993616;28;20026;-69
2021/12/28 05:41:58;;;;;;;29.92;17.05;;;;;;;5.06;100.00;100818.16;4993309;28;20022;-69
2021/12/28 05:44:44;;;;;;;30.05;17.70;;;;;;;4.49;100.00;100801.28;4995425;28;20026;-69
2021/12/28 05:47:30;;;;;;;26.80;15.93;;;;;;;5.03;100.00;100805.13;4981971;28;20034;-69
2021/12/28 05:50:16;;;;;;;29.65;17.52;;;;;;;4.56;100.00;100809.16;4993802;28;20113;-69
2021/12/28 05:53:03;;;;;;;30.75;18.08;;;;;;;4.51;100.00;100831.56;4995273;28;20456;-69
2021/12/28 05:55:49;;;;;;;28.33;16.80;;;;;;;4.72;100.00;100846.44;4994767;28;20061;-69
2021/12/28 05:58:35;;;;;;;31.77;17.40;;;;;;;4.91;100.00;100844.00;4993543;28;20026;-69
2021/12/28 06:01:20;;;;;;;30.75;18.48;;;;;;;4.87;100.00;100847.44;4994545;28;20043;-69
2021/12/28 06:04:07;;;;;;;29.10;16.88;;;;;;;4.97;100.00;100854.44;4995354;28;20113;-69
2021/12/28 06:06:53;;;;;;;30.00;16.92;;;;;;;5.06;100.00;100859.69;4994085;28;20040;-69
2021/12/28 06:09:39;;;;;;;30.73;17.13;;;;;;;5.08;100.00;100852.78;4994979;28;20026;-70
2021/12/28 06:12:24;;;;;;;28.10;16.73;;;;;;;4.82;100.00;100856.91;4994828;28;20418;-69
2021/12/28 06:15:12;;;;;;;30.02;17.05;;;;;;;4.47;100.00;100860.06;4994929;28;20041;-69
2021/12/28 06:17:57;;;;;;;27.88;16.30;;;;;;;4.47;100.00;100866.13;4980496;28;20034;-70
2021/12/28 06:20:43;;;;;;;26.40;15.95;;;;;;;4.58;100.00;100855.81;4994956;28;20344;-69
2021/12/28 06:23:29;;;;;;;27.13;15.48;;;;;;;4.79;100.00;100858.63;4995633;28;20030;-69
2021/12/28 06:26:15;;;;;;;26.33;15.05;;;;;;;4.84;100.00;100862.13;4994628;28;20030;-68
2021/12/28 06:29:04;;;;;;;25.05;14.93;;;;;;;4.69;100.00;100862.88;4978920;28;20045;-70
2021/12/28 06:31:50;;;;;;;23.17;14.10;;;;;;;4.46;100.00;100866.13;4994559;28;20018;-70
2021/12/28 06:34:36;;;;;;;22.45;14.05;;;;;;;4.62;100.00;100865.38;4993143;28;20026;-69
2021/12/28 06:37:21;;;;;;;24.75;13.55;;;;;;;4.87;100.00;100859.56;4994550;28;20022;-68
2021/12/28 06:40:08;;;;;;;24.85;15.10;;;;;;;5.03;100.00;100864.84;4994802;28;20093;-69
2021/12/28 06:42:54;;;;;;;27.50;16.92;;;;;;;5.22;100.00;100866.72;4994665;28;20031;-69
2021/12/28 06:45:40;;;;;;;28.55;16.73;;;;;;;4.81;100.00;100877.66;4983362;28;20110;-69
2021/12/28 06:48:26;;;;;;;26.88;15.43;;;;;;;4.44;100.00;100871.31;4985068;28;20088;-69
2021/12/28 06:51:13;;;;;;;32.13;19.20;;;;;;;4.58;100.00;100882.66;4998510;28;20022;-69
2021/12/28 06:53:58;;;;;;;27.58;16.67;;;;;;;4.37;100.00;100884.16;4998349;28;20037;-69
2021/12/28 06:56:44;;;;;;;30.42;17.88;;;;;;;4.93;100.00;100878.63;4984271;28;20029;-69
2021/12/28 06:59:30;;;;;;;29.20;16.17;;;;;;;4.94;100.00;100877.78;4983394;28;20037;-69
2021/12/28 07:02:17;;;;;;;27.67;15.95;;;;;;;5.03;100.00;100879.59;4997762;28;20042;-70
2021/12/28 07:05:05;;;;;;;25.45;15.15;;;;;;;4.53;100.00;100879.16;4998102;28;20431;-69
2021/12/28 07:07:51;;;;;;;27.77;16.30;;;;;;;5.09;100.00;100875.31;4982931;28;20048;-70
2021/12/28 07:10:36;;;;;;;20.45;12.63;;;;;;;4.72;100.00;100873.28;4998414;28;20118;-69
2021/12/28 07:13:22;;;;;;;22.08;13.13;;;;;;;4.11;100.00;100883.03;4997872;28;20085;-70
2021/12/28 07:16:08;;;;;;;23.35;14.05;;;;;;;4.10;100.00;100876.13;4995887;28;20455;-69
2021/12/28 07:18:54;;;;;;;26.02;14.38;;;;;;;5.04;100.00;100876.13;4997739;28;20113;-69
2021/12/28 07:21:40;;;;;;;21.30;13.75;;;;;;;5.01;100.00;100882.16;4997942;28;20030;-70
2021/12/28 07:24:26;;;;;;;24.58;14.80;;;;;;;4.79;100.00;100877.66;4997828;28;20435;-70
2021/12/28 07:27:12;;;;;;;25.27;14.93;;;;;;;4.85;100.00;100877.72;4997316;28;20026;-71
2021/12/28 07:29:59;;;;;;;25.50;16.02;;;;;;;5.10;100.00;100876.16;4997553;28;20033;-69
2021/12/28 07:32:44;;;;;;;21.20;13.05;;;;;;;5.16;100.00;100874.47;4997780;28;20392;-68
2021/12/28 07:35:30;;;;;;;19.55;11.93;;;;;;;5.16;100.00;100866.66;4995688;28;20101;-69
2021/12/28 07:38:16;;;;;;;18.02;11.55;;;;;;;4.38;100.00;100866.03;4997889;28;20065;-68
2021/12/28 07:41:02;;;;;;;20.23;12.90;;;;;;;4.22;100.00;100869.31;4997241;28;20552;-69
2021/12/28 07:43:48;;;;;;;21.02;13.82;;;;;;;4.97;100.00;100869.13;4983061;28;20034;-69
2021/12/28 07:46:34;;;;;;;21.90;13.27;;;;;;;4.92;100.00;100876.03;4997573;28;20037;-69
2021/12/28 07:49:20;;;;;;;21.60;13.07;;;;;;;4.55;100.00;100869.66;4997035;28;20522;-69
2021/12/28 07:52:06;;;;;;;22.67;13.93;;;;;;;4.98;100.00;100876.06;4996602;28;20048;-70
2021/12/28 07:54:51;;;;;;;23.13;15.05;;;;;;;5.62;100.00;100877.34;4983121;28;20030;-70
2021/12/28 07:57:37;;;;;;;27.90;17.00;;;;;;;5.52;100.00;100884.22;4994641;28;20033;-68
2021/12/28 08:00:24;;;;;;;25.50;16.25;;;;;;;5.69;100.00;100884.28;4996702;28;20050;-68
2021/12/28 08:03:10;;;;;;;23.85;14.75;;;;;;;5.74;100.00;100887.81;4995391;28;20049;-69
2021/12/28 08:05:56;;;;;;;23.33;14.48;;;;;;;5.46;100.00;100893.72;4996796;28;20030;-68
2021/12/28 08:08:43;;;;;;;26.15;16.27;;;;;;;5.32;100.00;100889.28;4996121;28;20042;-70
2021/12/28 08:11:29;;;;;;;26.25;15.70;;;;;;;4.92;100.00;100892.47;4995260;28;20022;-70
2021/12/28 08:14:15;;;;;;;23.02;13.98;;;;;;;4.73;100.00;100897.50;4997305;28;20507;-68
2021/12/28 08:17:00;;;;;;;24.42;15.07;;;;;;;4.80;100.00;100909.66;4983356;28;20029;-68
2021/12/28 08:19:46;;;;;;;24.30;15.15;;;;;;;4.38;100.00;100907.53;4995386;28;20030;-68
2021/12/28 08:22:32;;;;;;;26.35;15.98;;;;;;;4.93;100.00;100904.59;4996005;28;20470;-68
2021/12/28 08:25:20;;;;;;;25.77;16.42;;;;;;;4.56;100.00;100912.03;4996700;28;20037;-68
2021/12/28 08:28:06;;;;;;;26.00;15.98;;;;;;;4.89;100.00;100905.44;4982474;28;20073;-70
2021/12/28 08:30:52;;;;;;;25.42;15.35;;;;;;;4.33;100.00;100904.03;4996511;28;20064;-68
2021/12/28 08:33:38;;;;;;;20.52;13.30;;;;;;;4.67;100.00;100906.09;4981496;28;20026;-70
2021/12/28 08:36:24;;;;;;;23.08;13.60;;;;;;;5.38;100.00;100899.72;4996254;28;20058;-70
2021/12/28 08:39:10;;;;;;;22.00;13.65;;;;;;;4.60;100.00;100893.06;4982303;28;20181;-69
2021/12/28 08:41:55;;;;;;;21.10;13.63;;;;;;;5.11;100.00;100881.34;4981604;28;20028;-70
2021/12/28 08:44:41;;;;;;;22.63;13.70;;;;;;;5.06;100.00;100883.06;4996957;28;20027;-69
2021/12/28 08:47:27;;;;;;;24.98;15.40;;;;;;;5.71;100.00;100882.59;4982370;28;20034;-68
2021/12/28 08:50:13;;;;;;;23.95;14.88;;;;;;;5.72;100.00;100879.13;4995605;28;20041;-69
2021/12/28 08:52:59;;;;;;;26.13;15.60;;;;;;;5.38;100.00;100885.84;4996508;28;20476;-70
2021/12/28 08:55:48;;;;;;;25.52;15.60;;;;;;;4.96;100.00;100889.06;4994454;28;20086;-69
2021/12/28 08:58:37;;;;;;;26.00;15.80;;;;;;;4.94;100.00;100893.34;4995776;28;20038;-71
2021/12/28 09:01:26;;;;;;;26.17;16.08;;;;;;;5.65;100.00;100893.81;4996269;28;20080;-70
2021/12/28 09:04:11;;;;;;;25.55;16.35;;;;;;;5.36;100.00;100885.84;4995553;28;20036;-70
2021/12/28 09:06:57;;;;;;;24.23;15.10;;;;;;;5.01;100.00;100878.69;4993956;28;20117;-70
2021/12/28 09:09:45;;;;;;;22.83;13.85;;;;;;;4.69;100.00;100883.63;4992931;28;20050;-68
2021/12/28 09:12:30;;;;;;;20.55;13.98;;;;;;;5.12;100.00;100875.31;4996418;28;20031;-68
2021/12/28 09:15:20;;;;;;;24.52;15.38;;;;;;;5.12;100.00;100872.72;4995900;28;20526;-68
2021/12/28 09:18:06;;;;;;;23.58;14.68;;;;;;;5.47;100.00;100872.94;4996199;28;20033;-72
2021/12/28 09:20:51;;;;;;;25.20;14.70;;;;;;;5.28;100.00;100865.91;4996391;28;20027;-72
2021/12/28 09:23:38;;;;;;;25.55;15.77;;;;;;;6.04;100.00;100872.34;4996504;28;20034;-71
2021/12/28 09:26:24;;;;;;;26.08;15.02;;;;;;;4.87;100.00;100857.81;4996331;28;20022;-71
2021/12/28 09:29:10;;;;;;;23.77;14.40;;;;;;;5.64;100.00;100862.63;4996464;28;20037;-68
2021/12/28 09:31:57;;;;;;;24.27;14.75;;;;;;;5.07;100.00;100858.81;4980831;28;20423;-69
2021/12/28 09:34:50;;;;;;;26.45;17.13;;;;;;;5.10;100.00;100863.16;4994577;28;20026;-69
2021/12/28 09:37:36;;;;;;;27.42;17.40;;;;;;;5.77;100.00;100854.88;4981382;28;20031;-69
2021/12/28 09:40:22;;;;;;;24.92;15.30;;;;;;;6.29;100.00;100850.72;4995591;28;20112;-68
2021/12/28 09:43:08;;;;;;;23.52;14.80;;;;;;;5.76;100.00;100847.94;4993035;28;20467;-69
2021/12/28 09:45:54;;;;;;;22.60;14.57;;;;;;;6.09;100.00;100852.41;4995381;28;20042;-69
2021/12/28 09:48:40;;;;;;;23.65;15.13;;;;;;;5.67;100.00;100849.66;4995387;28;20085;-69
2021/12/28 09:51:25;;;;;;;20.27;13.25;;;;;;;6.09;100.00;100857.63;4982329;28;20323;-68
2021/12/28 09:54:11;;;;;;;23.02;14.70;;;;;;;6.04;100.00;100847.22;4980876;28;20026;-68
2021/12/28 09:56:59;;;;;;;21.02;13.43;;;;;;;5.54;100.00;100840.06;4993154;28;20026;-68
2021/12/28 09:59:46;;;;;;;24.25;15.40;;;;;;;6.35;100.00;100832.53;4993317;28;20030;-69
2021/12/28 10:02:32;;;;;;;30.58;18.13;;;;;;;5.50;100.00;100831.38;4994566;28;20030;-68
2021/12/28 10:05:23;;;;;;;23.30;14.65;;;;;;;5.04;100.00;100838.06;4995187;28;20032;-69
2021/12/28 10:08:09;;;;;;;26.20;15.43;;;;;;;5.80;100.00;100833.22;4994482;28;20095;-69
2021/12/28 10:10:57;;;;;;;56.25;31.98;;;;;;;5.86;100.00;100838.50;4993834;28;20537;-73
2021/12/28 10:13:42;;;;;;;38.67;23.10;;;;;;;6.44;100.00;100845.56;4994761;28;20088;-72
2021/12/28 10:16:48;;;;;;;23.27;14.40;;;;;;;6.15;100.00;100853.28;4996231;28;20037;-69
2021/12/28 10:19:43;;;;;;;24.85;15.75;;;;;;;5.95;100.00;100848.91;4995341;28;20289;-69
2021/12/28 10:22:33;;;;;;;23.85;15.30;;;;;;;5.92;100.00;100854.09;4998789;28;20038;-68
2021/12/28 10:25:24;;;;;;;23.45;15.23;;;;;;;5.65;100.00;100843.56;4998457;28;20109;-68
2021/12/28 10:28:13;;;;;;;25.00;15.30;;;;;;;6.26;100.00;100837.72;4985522;28;20388;-70
2021/12/28 10:31:17;;;;;;;29.00;17.52;;;;;;;6.07;100.00;100846.34;4999269;28;20446;-68
2021/12/28 10:34:03;;;;;;;26.83;16.42;;;;;;;5.70;100.00;100839.25;4998544;28;20030;-69
2021/12/28 10:36:49;;;;;;;27.65;17.35;;;;;;;6.31;100.00;100836.00;4998182;28;20066;-69
2021/12/28 10:39:46;;;;;;;27.60;17.40;;;;;;;6.36;100.00;100834.25;4983258;28;20041;-68
2021/12/28 10:42:52;;;;;;;28.23;17.55;;;;;;;5.92;100.00;100830.69;4998363;28;20030;-69
2021/12/28 10:45:46;;;;;;;28.63;17.25;;;;;;;5.57;100.00;100833.13;4985202;28;20359;-68
2021/12/28 10:48:39;;;;;;;29.15;17.52;;;;;;;5.38;100.00;100830.44;4997197;28;20498;-69
2021/12/28 10:51:30;;;;;;;26.20;17.10;;;;;;;5.70;100.00;100824.53;4998656;28;20058;-68
2021/12/28 10:54:16;;;;;;;26.38;16.98;;;;;;;5.98;100.00;100828.13;4984632;28;20315;-68
2021/12/28 10:57:02;;;;;;;26.17;16.83;;;;;;;5.98;100.00;100823.78;4998392;28;20026;-71
2021/12/28 10:59:48;;;;;;;30.60;18.17;;;;;;;6.48;100.00;100827.34;4998651;28;20364;-71
2021/12/28 11:02:34;;;;;;;30.98;18.80;;;;;;;6.55;100.00;100818.66;4970376;28;20031;-72
2021/12/28 11:05:34;;;;;;;33.35;19.67;;;;;;;6.64;100.00;100823.00;4998542;28;20022;-70
2021/12/28 11:08:23;;;;;;;30.35;19.10;;;;;;;5.77;100.00;100828.00;4997361;28;20478;-72
2021/12/28 11:11:13;;;;;;;29.67;19.02;;;;;;;5.98;100.00;100830.72;4998170;28;20367;-72
2021/12/28 11:14:05;;;;;;;28.70;17.83;;;;;;;5.84;100.00;100837.59;4997670;28;20026;-72
2021/12/28 11:16:54;;;;;;;28.63;18.30;;;;;;;6.20;100.00;100835.09;4998061;28;20415;-72
2021/12/28 11:19:39;;;;;;;29.95;17.98;;;;;;;6.44;100.00;100838.63;4997627;28;20452;-72
2021/12/28 11:22:25;;;;;;;29.67;18.65;;;;;;;6.24;100.00;100834.25;4998060;28;20030;-68
2021/12/28 11:25:22;;;;;;;27.42;16.90;;;;;;;5.94;100.00;100829.84;4997524;28;20026;-68
2021/12/28 11:28:22;;;;;;;27.23;17.33;;;;;;;6.02;100.00;100835.94;4996419;28;20339;-68
2021/12/28 11:31:10;;;;;;;25.40;16.65;;;;;;;6.14;100.00;100828.16;4997611;28;20022;-69
2021/12/28 11:34:12;;;;;;;28.85;18.27;;;;;;;6.03;100.00;100823.81;4997135;28;20101;-68
2021/12/28 11:37:08;;;;;;;27.38;17.45;;;;;;;5.86;100.00;100830.69;4997589;28;20044;-69
2021/12/28 11:39:57;;;;;;;28.50;17.92;;;;;;;5.61;100.00;100814.09;4997167;28;20034;-68
2021/12/28 11:42:43;;;;;;;32.15;19.90;;;;;;;6.08;100.00;100819.47;4998041;28;20026;-69
2021/12/28 11:45:30;;;;;;;36.08;21.67;;;;;;;5.83;100.00;100820.28;4997380;28;20121;-68
2021/12/28 11:48:15;;;;;;;33.45;21.73;;;;;;;5.86;100.00;100825.50;4996276;28;20030;-69
2021/12/28 11:51:02;;;;;;;33.75;20.02;;;;;;;5.85;100.00;100816.81;4997702;28;20469;-71
2021/12/28 11:53:49;;;;;;;34.55;20.83;;;;;;;6.08;100.00;100809.94;4983087;28;20121;-72
2021/12/28 11:56:39;;;;;;;31.95;20.08;;;;;;;6.23;100.00;100807.34;4997170;28;20386;-72
2021/12/28 11:59:28;;;;;;;36.92;21.83;;;;;;;5.92;100.00;100800.38;4995585;28;20462;-71
2021/12/28 12:02:14;;;;;;;38.78;23.27;;;;;;;5.98;100.00;100799.53;4996634;28;20410;-71
2021/12/28 12:05:00;;;;;;;42.75;25.00;;;;;;;6.21;100.00;100809.09;4997273;28;20030;-71
2021/12/28 12:08:02;;;;;;;47.75;28.77;;;;;;;6.23;100.00;100812.56;4982346;28;20048;-72
2021/12/28 12:10:50;;;;;;;46.95;26.33;;;;;;;6.21;100.00;100810.81;4997799;28;20037;-72
2021/12/28 12:13:37;;;;;;;50.45;29.08;;;;;;;6.20;100.00;100802.16;4996534;28;20530;-72
2021/12/28 12:16:23;;;;;;;49.78;28.58;;;;;;;6.20;100.00;100809.97;4996883;28;20034;-72
2021/12/28 12:19:09;;;;;;;48.08;28.08;;;;;;;6.65;100.00;100804.78;4996010;28;20037;-72
2021/12/28 12:22:32;;;;;;;55.72;30.85;;;;;;;6.14;100.00;100802.16;4983294;28;20030;-72
2021/12/28 12:25:17;;;;;;;50.42;28.77;;;;;;;6.36;100.00;100796.13;4982085;28;20422;-72
2021/12/28 12:28:05;;;;;;;55.92;31.20;;;;;;;6.13;100.00;100800.41;4997023;28;20118;-71
2021/12/28 12:30:55;;;;;;;49.40;29.35;;;;;;;6.05;100.00;100807.34;4996709;28;20033;-72
2021/12/28 12:33:43;;;;;;;50.55;29.17;;;;;;;6.08;100.00;100807.34;4996841;28;20034;-72
2021/12/28 12:36:29;;;;;;;50.25;28.58;;;;;;;6.13;100.00;100815.13;4996450;28;20134;-72
2021/12/28 12:39:15;;;;;;;53.03;29.25;;;;;;;5.78;100.00;100816.78;4996681;28;20363;-72
2021/12/28 12:42:00;;;;;;;56.88;30.27;;;;;;;6.18;100.00;100816.03;4968702;28;20054;-72
2021/12/28 12:44:46;;;;;;;53.92;29.77;;;;;;;6.11;100.00;100822.09;4996009;28;20105;-72
2021/12/28 12:47:37;;;;;;;51.63;29.00;;;;;;;5.98;100.00;100810.78;4981976;28;20098;-72
2021/12/28 12:50:26;;;;;;;58.13;33.25;;;;;;;6.27;100.00;100818.66;4994774;28;20033;-72
2021/12/28 12:53:45;;;;;;;68.00;35.35;;;;;;;6.34;100.00;100818.66;4983295;28;20030;-73
2021/12/28 12:56:33;;;;;;;65.50;35.17;;;;;;;6.07;100.00;100818.59;4994640;28;20069;-72
2021/12/28 12:59:19;;;;;;;62.70;32.80;;;;;;;5.71;100.00;100834.06;4995628;28;20109;-72
2021/12/28 13:02:09;;;;;;;76.70;37.38;;;;;;;5.96;100.00;100840.25;4995464;28;20112;-71
2021/12/28 13:04:59;;;;;;;62.40;33.58;;;;;;;5.86;100.00;100835.91;4994858;28;20088;-71
2021/12/28 13:07:46;;;;;;;47.80;27.17;;;;;;;5.32;100.00;100841.69;4994532;28;20030;-72
2021/12/28 13:10:32;;;;;;;76.25;40.10;;;;;;;5.59;100.00;100839.22;4994733;28;20026;-71
2021/12/28 13:13:18;;;;;;;64.53;33.72;;;;;;;5.54;100.00;100832.28;4981362;28;20026;-71
2021/12/28 13:16:07;;;;;;;82.90;37.38;;;;;;;5.24;100.00;100835.56;4995127;28;20101;-72